sensor_id;sensor_type;location;lat;lon;timestamp;pressure;altitude;pressure_sealevel;temperature;humidity
29359;BME280;16347;53.232;6.556;2023-05-20T00:00:27;102724.81;;;17.94;47.91
29359;BME280;16347;53.232;6.556;2023-05-20T00:02:55;102719.63;;;17.91;47.86
29359;BME280;16347;53.232;6.556;2023-05-20T00:05:25;102713.81;;;17.94;47.94
29359;BME280;16347;53.232;6.556;2023-05-20T00:07:55;102728.59;;;17.93;47.80
29359;BME280;16347;53.232;6.556;2023-05-20T00:10:23;102716.19;;;17.89;48.01
29359;BME280;16347;53.232;6.556;2023-05-20T00:12:51;102720.84;;;17.88;48.18
29359;BME280;16347;53.232;6.556;2023-05-20T00:15:18;102715.47;;;17.87;48.37
29359;BME280;16347;53.232;6.556;2023-05-20T00:17:46;102713.38;;;17.81;48.78
29359;BME280;16347;53.232;6.556;2023-05-20T00:20:14;102712.59;;;17.71;48.84
29359;BME280;16347;53.232;6.556;2023-05-20T00:22:42;102716.59;;;17.76;48.75
29359;BME280;16347;53.232;6.556;2023-05-20T00:25:11;102703.03;;;17.75;48.54
29359;BME280;16347;53.232;6.556;2023-05-20T00:27:40;102708.88;;;17.80;48.50
29359;BME280;16347;53.232;6.556;2023-05-20T00:30:08;102703.38;;;17.80;48.74
29359;BME280;16347;53.232;6.556;2023-05-20T00:32:36;102701.28;;;17.74;48.78
29359;BME280;16347;53.232;6.556;2023-05-20T00:35:06;102705.38;;;17.70;48.82
29359;BME280;16347;53.232;6.556;2023-05-20T00:37:34;102696.09;;;17.71;48.86
29359;BME280;16347;53.232;6.556;2023-05-20T00:40:04;102694.22;;;17.71;48.96
29359;BME280;16347;53.232;6.556;2023-05-20T00:42:33;102700.91;;;17.69;49.25
29359;BME280;16347;53.232;6.556;2023-05-20T00:45:01;102692.66;;;17.69;49.12
29359;BME280;16347;53.232;6.556;2023-05-20T00:47:32;102701.38;;;17.64;49.84
29359;BME280;16347;53.232;6.556;2023-05-20T00:50:00;102697.63;;;17.65;49.31
29359;BME280;16347;53.232;6.556;2023-05-20T00:52:30;102705.16;;;17.63;49.31
29359;BME280;16347;53.232;6.556;2023-05-20T00:54:58;102694.88;;;17.65;49.54
29359;BME280;16347;53.232;6.556;2023-05-20T00:57:26;102693.06;;;17.56;49.43
29359;BME280;16347;53.232;6.556;2023-05-20T00:59:56;102700.69;;;17.62;49.22
29359;BME280;16347;53.232;6.556;2023-05-20T01:02:24;102692.59;;;17.61;49.25
29359;BME280;16347;53.232;6.556;2023-05-20T01:04:52;102698.41;;;17.58;49.40
29359;BME280;16347;53.232;6.556;2023-05-20T01:07:22;102696.34;;;17.60;49.11
29359;BME280;16347;53.232;6.556;2023-05-20T01:09:51;102690.44;;;17.55;49.55
29359;BME280;16347;53.232;6.556;2023-05-20T01:12:24;102690.28;;;17.56;49.46
29359;BME280;16347;53.232;6.556;2023-05-20T01:14:57;102693.19;;;17.55;49.51
29359;BME280;16347;53.232;6.556;2023-05-20T01:17:30;102687.28;;;17.50;49.38
29359;BME280;16347;53.232;6.556;2023-05-20T01:20:01;102694.78;;;17.39;49.51
29359;BME280;16347;53.232;6.556;2023-05-20T01:22:31;102686.38;;;17.41;49.61
29359;BME280;16347;53.232;6.556;2023-05-20T01:24:58;102680.00;;;17.40;49.66
29359;BME280;16347;53.232;6.556;2023-05-20T01:27:28;102681.56;;;17.43;49.59
29359;BME280;16347;53.232;6.556;2023-05-20T01:29:56;102683.06;;;17.37;49.99
29359;BME280;16347;53.232;6.556;2023-05-20T01:32:27;102684.81;;;17.38;49.75
29359;BME280;16347;53.232;6.556;2023-05-20T01:34:59;102680.31;;;17.37;49.85
29359;BME280;16347;53.232;6.556;2023-05-20T01:37:27;102677.56;;;17.37;49.90
29359;BME280;16347;53.232;6.556;2023-05-20T01:39:57;102674.97;;;17.36;50.01
29359;BME280;16347;53.232;6.556;2023-05-20T01:42:26;102674.28;;;17.34;49.72
29359;BME280;16347;53.232;6.556;2023-05-20T01:44:55;102680.66;;;17.34;49.79
29359;BME280;16347;53.232;6.556;2023-05-20T01:47:25;102676.34;;;17.32;49.80
29359;BME280;16347;53.232;6.556;2023-05-20T01:49:53;102677.34;;;17.31;50.02
29359;BME280;16347;53.232;6.556;2023-05-20T01:52:22;102672.88;;;17.30;49.35
29359;BME280;16347;53.232;6.556;2023-05-20T01:54:50;102674.38;;;17.24;49.63
29359;BME280;16347;53.232;6.556;2023-05-20T01:57:19;102676.44;;;17.22;49.89
29359;BME280;16347;53.232;6.556;2023-05-20T01:59:49;102676.88;;;17.18;50.13
29359;BME280;16347;53.232;6.556;2023-05-20T02:02:17;102674.28;;;17.16;50.32
29359;BME280;16347;53.232;6.556;2023-05-20T02:04:47;102678.38;;;17.12;49.79
29359;BME280;16347;53.232;6.556;2023-05-20T02:07:15;102673.50;;;17.06;50.29
29359;BME280;16347;53.232;6.556;2023-05-20T02:09:44;102675.22;;;17.07;50.53
29359;BME280;16347;53.232;6.556;2023-05-20T02:12:12;102675.47;;;17.14;49.54
29359;BME280;16347;53.232;6.556;2023-05-20T02:14:45;102673.91;;;17.11;50.15
29359;BME280;16347;53.232;6.556;2023-05-20T02:17:15;102678.69;;;17.09;49.91
29359;BME280;16347;53.232;6.556;2023-05-20T02:19:43;102678.84;;;17.08;50.03
29359;BME280;16347;53.232;6.556;2023-05-20T02:22:11;102679.00;;;17.06;50.12
29359;BME280;16347;53.232;6.556;2023-05-20T02:24:42;102668.31;;;17.03;50.05
29359;BME280;16347;53.232;6.556;2023-05-20T02:27:10;102666.59;;;17.02;50.07
29359;BME280;16347;53.232;6.556;2023-05-20T02:29:38;102673.25;;;17.00;50.27
29359;BME280;16347;53.232;6.556;2023-05-20T02:32:07;102670.38;;;17.01;50.25
29359;BME280;16347;53.232;6.556;2023-05-20T02:34:35;102667.75;;;17.00;50.41
29359;BME280;16347;53.232;6.556;2023-05-20T02:37:04;102667.38;;;16.95;49.96
29359;BME280;16347;53.232;6.556;2023-05-20T02:39:31;102667.84;;;16.90;50.13
29359;BME280;16347;53.232;6.556;2023-05-20T02:41:59;102674.06;;;16.92;50.44
29359;BME280;16347;53.232;6.556;2023-05-20T02:44:27;102662.19;;;16.91;49.95
29359;BME280;16347;53.232;6.556;2023-05-20T02:46:55;102664.41;;;16.88;50.29
29359;BME280;16347;53.232;6.556;2023-05-20T02:49:25;102662.34;;;16.90;50.15
29359;BME280;16347;53.232;6.556;2023-05-20T02:51:54;102665.41;;;16.87;50.22
29359;BME280;16347;53.232;6.556;2023-05-20T02:54:22;102659.78;;;16.88;50.02
29359;BME280;16347;53.232;6.556;2023-05-20T02:56:50;102669.34;;;16.84;50.16
29359;BME280;16347;53.232;6.556;2023-05-20T02:59:18;102675.84;;;16.83;50.37
29359;BME280;16347;53.232;6.556;2023-05-20T03:01:46;102665.41;;;16.87;50.11
29359;BME280;16347;53.232;6.556;2023-05-20T03:04:14;102661.97;;;16.85;50.11
29359;BME280;16347;53.232;6.556;2023-05-20T03:06:46;102659.13;;;16.77;49.61
29359;BME280;16347;53.232;6.556;2023-05-20T03:09:14;102671.44;;;16.73;49.86
29359;BME280;16347;53.232;6.556;2023-05-20T03:11:42;102662.19;;;16.74;50.23
29359;BME280;16347;53.232;6.556;2023-05-20T03:14:10;102662.19;;;16.74;50.04
29359;BME280;16347;53.232;6.556;2023-05-20T03:16:39;102664.94;;;16.74;49.96
29359;BME280;16347;53.232;6.556;2023-05-20T03:19:07;102665.63;;;16.76;49.54
29359;BME280;16347;53.232;6.556;2023-05-20T03:21:35;102664.50;;;16.69;49.98
29359;BME280;16347;53.232;6.556;2023-05-20T03:24:04;102668.38;;;16.76;49.58
29359;BME280;16347;53.232;6.556;2023-05-20T03:26:32;102660.13;;;16.76;49.24
29359;BME280;16347;53.232;6.556;2023-05-20T03:29:04;102661.31;;;16.73;49.50
29359;BME280;16347;53.232;6.556;2023-05-20T03:31:32;102666.81;;;16.73;49.41
29359;BME280;16347;53.232;6.556;2023-05-20T03:34:00;102665.63;;;16.76;49.67
29359;BME280;16347;53.232;6.556;2023-05-20T03:36:28;102670.28;;;16.75;49.60
29359;BME280;16347;53.232;6.556;2023-05-20T03:38:56;102663.91;;;16.75;49.42
29359;BME280;16347;53.232;6.556;2023-05-20T03:41:26;102671.84;;;16.78;49.23
29359;BME280;16347;53.232;6.556;2023-05-20T03:43:54;102658.09;;;16.78;49.31
29359;BME280;16347;53.232;6.556;2023-05-20T03:46:23;102668.22;;;16.77;49.24
29359;BME280;16347;53.232;6.556;2023-05-20T03:48:51;102667.03;;;16.80;49.00
29359;BME280;16347;53.232;6.556;2023-05-20T03:51:19;102662.03;;;16.75;48.67
29359;BME280;16347;53.232;6.556;2023-05-20T03:53:48;102662.19;;;16.74;48.63
29359;BME280;16347;53.232;6.556;2023-05-20T03:56:16;102664.94;;;16.74;49.35
29359;BME280;16347;53.232;6.556;2023-05-20T03:58:45;102666.81;;;16.73;49.03
29359;BME280;16347;53.232;6.556;2023-05-20T04:01:13;102670.97;;;16.77;48.88
29359;BME280;16347;53.232;6.556;2023-05-20T04:03:41;102662.72;;;16.77;48.61
29359;BME280;16347;53.232;6.556;2023-05-20T04:06:09;102666.97;;;16.72;49.02
29359;BME280;16347;53.232;6.556;2023-05-20T04:08:37;102661.88;;;16.77;48.65
29359;BME280;16347;53.232;6.556;2023-05-20T04:11:05;102662.72;;;16.77;48.83
29359;BME280;16347;53.232;6.556;2023-05-20T04:13:33;102658.31;;;16.67;48.61
29359;BME280;16347;53.232;6.556;2023-05-20T04:16:03;102663.34;;;16.71;48.77
29359;BME280;16347;53.232;6.556;2023-05-20T04:18:31;102665.38;;;16.69;48.94
29359;BME280;16347;53.232;6.556;2023-05-20T04:21:04;102669.41;;;16.75;49.07
29359;BME280;16347;53.232;6.556;2023-05-20T04:23:33;102672.53;;;16.80;49.20
29359;BME280;16347;53.232;6.556;2023-05-20T04:26:01;102675.16;;;16.81;48.55
29359;BME280;16347;53.232;6.556;2023-05-20T04:28:31;102680.16;;;16.86;48.66
29359;BME280;16347;53.232;6.556;2023-05-20T04:30:59;102683.53;;;16.80;48.82
29359;BME280;16347;53.232;6.556;2023-05-20T04:33:30;102685.97;;;16.83;49.06
29359;BME280;16347;53.232;6.556;2023-05-20T04:35:59;102683.47;;;16.89;48.83
29359;BME280;16347;53.232;6.556;2023-05-20T04:38:29;102683.31;;;16.91;48.95
29359;BME280;16347;53.232;6.556;2023-05-20T04:40:59;102680.16;;;16.86;48.50
29359;BME280;16347;53.232;6.556;2023-05-20T04:43:28;102684.50;;;16.88;48.75
29359;BME280;16347;53.232;6.556;2023-05-20T04:45:58;102687.25;;;16.88;48.80
29359;BME280;16347;53.232;6.556;2023-05-20T04:48:26;102687.06;;;16.90;48.62
29359;BME280;16347;53.232;6.556;2023-05-20T04:50:57;102685.88;;;16.92;48.69
29359;BME280;16347;53.232;6.556;2023-05-20T04:53:25;102688.50;;;16.94;48.22
29359;BME280;16347;53.232;6.556;2023-05-20T04:55:53;102690.38;;;16.93;49.64
29359;BME280;16347;53.232;6.556;2023-05-20T04:58:23;102689.06;;;16.98;48.05
29359;BME280;16347;53.232;6.556;2023-05-20T05:00:51;102687.19;;;16.98;47.83
29359;BME280;16347;53.232;6.556;2023-05-20T05:03:19;102689.19;;;16.96;47.85
29359;BME280;16347;53.232;6.556;2023-05-20T05:05:48;102687.19;;;16.98;47.61
29359;BME280;16347;53.232;6.556;2023-05-20T05:08:17;102687.56;;;17.03;47.78
29359;BME280;16347;53.232;6.556;2023-05-20T05:10:49;102691.47;;;17.01;47.15
29359;BME280;16347;53.232;6.556;2023-05-20T05:13:17;102692.03;;;17.04;47.17
29359;BME280;16347;53.232;6.556;2023-05-20T05:15:45;102690.63;;;17.00;47.03
29359;BME280;16347;53.232;6.556;2023-05-20T05:18:12;102693.03;;;17.03;47.26
29359;BME280;16347;53.232;6.556;2023-05-20T05:20:44;102691.63;;;16.99;46.82
29359;BME280;16347;53.232;6.556;2023-05-20T05:23:11;102693.22;;;17.02;46.94
29359;BME280;16347;53.232;6.556;2023-05-20T05:25:41;102690.63;;;17.00;46.87
29359;BME280;16347;53.232;6.556;2023-05-20T05:28:09;102695.47;;;17.06;47.07
29359;BME280;16347;53.232;6.556;2023-05-20T05:30:37;102698.47;;;17.13;47.08
29359;BME280;16347;53.232;6.556;2023-05-20T05:33:05;102694.00;;;17.12;46.70
29359;BME280;16347;53.232;6.556;2023-05-20T05:35:33;102690.22;;;17.13;46.61
29359;BME280;16347;53.232;6.556;2023-05-20T05:38:01;102678.06;;;17.15;46.99
29359;BME280;16347;53.232;6.556;2023-05-20T05:40:29;102687.88;;;17.18;46.80
29359;BME280;16347;53.232;6.556;2023-05-20T05:42:59;102686.69;;;17.20;46.66
29359;BME280;16347;53.232;6.556;2023-05-20T05:45:27;102686.47;;;17.14;46.54
29359;BME280;16347;53.232;6.556;2023-05-20T05:47:55;102694.25;;;17.18;46.33
29359;BME280;16347;53.232;6.556;2023-05-20T05:50:24;102689.44;;;17.20;45.84
29359;BME280;16347;53.232;6.556;2023-05-20T05:52:52;102679.22;;;17.13;45.64
29359;BME280;16347;53.232;6.556;2023-05-20T05:55:21;102693.47;;;17.08;45.91
29359;BME280;16347;53.232;6.556;2023-05-20T05:57:49;102676.66;;;17.11;45.51
29359;BME280;16347;53.232;6.556;2023-05-20T06:00:19;102690.09;;;17.14;45.73
29359;BME280;16347;53.232;6.556;2023-05-20T06:02:47;102673.13;;;17.19;45.70
29359;BME280;16347;53.232;6.556;2023-05-20T06:05:30;102672.94;;;17.20;46.17
29359;BME280;16347;53.232;6.556;2023-05-20T06:07:59;102679.63;;;17.18;45.34
29359;BME280;16347;53.232;6.556;2023-05-20T06:10:29;102671.16;;;17.11;45.43
29359;BME280;16347;53.232;6.556;2023-05-20T06:12:56;102683.09;;;17.02;45.32
29359;BME280;16347;53.232;6.556;2023-05-20T06:15:27;102683.09;;;17.02;45.07
29359;BME280;16347;53.232;6.556;2023-05-20T06:17:55;102677.28;;;17.05;45.56
29359;BME280;16347;53.232;6.556;2023-05-20T06:20:25;102678.22;;;17.14;45.78
29359;BME280;16347;53.232;6.556;2023-05-20T06:22:53;102679.63;;;17.18;45.86
29359;BME280;16347;53.232;6.556;2023-05-20T06:25:23;102693.84;;;17.13;45.69
29359;BME280;16347;53.232;6.556;2023-05-20T06:27:51;102688.56;;;17.20;45.37
29359;BME280;16347;53.232;6.556;2023-05-20T06:30:21;102685.81;;;17.20;45.34
29359;BME280;16347;53.232;6.556;2023-05-20T06:32:50;102680.66;;;17.17;44.94
29359;BME280;16347;53.232;6.556;2023-05-20T06:35:18;102688.19;;;17.15;45.08
29359;BME280;16347;53.232;6.556;2023-05-20T06:37:46;102691.09;;;17.13;45.08
29359;BME280;16347;53.232;6.556;2023-05-20T06:40:15;102697.69;;;17.20;45.65
29359;BME280;16347;53.232;6.556;2023-05-20T06:42:43;102693.53;;;17.16;45.36
29359;BME280;16347;53.232;6.556;2023-05-20T06:45:12;102688.19;;;17.15;45.16
29359;BME280;16347;53.232;6.556;2023-05-20T06:47:42;102693.59;;;17.07;45.49
29359;BME280;16347;53.232;6.556;2023-05-20T06:50:12;102690.22;;;17.13;45.61
29359;BME280;16347;53.232;6.556;2023-05-20T06:52:40;102680.97;;;17.14;45.85
29359;BME280;16347;53.232;6.556;2023-05-20T06:55:08;102675.88;;;17.19;45.57
29359;BME280;16347;53.232;6.556;2023-05-20T06:57:36;102675.38;;;17.23;45.33
29359;BME280;16347;53.232;6.556;2023-05-20T07:00:05;102675.78;;;17.28;45.41
29359;BME280;16347;53.232;6.556;2023-05-20T07:02:39;102662.72;;;17.30;45.16
29359;BME280;16347;53.232;6.556;2023-05-20T07:05:07;102656.91;;;17.33;45.38
29359;BME280;16347;53.232;6.556;2023-05-20T07:07:37;102661.78;;;17.39;45.63
29359;BME280;16347;53.232;6.556;2023-05-20T07:10:06;102651.50;;;17.41;45.43
29359;BME280;16347;53.232;6.556;2023-05-20T07:12:34;102652.81;;;17.37;44.90
29359;BME280;16347;53.232;6.556;2023-05-20T07:15:03;102650.50;;;17.25;45.01
29359;BME280;16347;53.232;6.556;2023-05-20T07:17:32;102649.72;;;17.32;45.34
29359;BME280;16347;53.232;6.556;2023-05-20T07:20:00;102648.88;;;17.40;45.06
29359;BME280;16347;53.232;6.556;2023-05-20T07:22:30;102651.00;;;17.46;45.28
29359;BME280;16347;53.232;6.556;2023-05-20T07:25:11;102653.38;;;17.41;45.00
29359;BME280;16347;53.232;6.556;2023-05-20T07:27:39;102659.13;;;17.30;44.95
29359;BME280;16347;53.232;6.556;2023-05-20T07:30:08;102664.22;;;17.42;45.23
29359;BME280;16347;53.232;6.556;2023-05-20T07:32:38;102660.31;;;17.27;44.68
29359;BME280;16347;53.232;6.556;2023-05-20T07:35:08;102657.63;;;17.35;44.79
29359;BME280;16347;53.232;6.556;2023-05-20T07:37:36;102662.63;;;17.40;45.90
29359;BME280;16347;53.232;6.556;2023-05-20T07:40:06;102656.13;;;17.41;45.85
29359;BME280;16347;53.232;6.556;2023-05-20T07:42:38;102654.16;;;17.51;45.37
29359;BME280;16347;53.232;6.556;2023-05-20T07:45:07;102645.72;;;17.53;45.51
29359;BME280;16347;53.232;6.556;2023-05-20T07:47:36;102649.50;;;17.52;45.22
29359;BME280;16347;53.232;6.556;2023-05-20T07:50:05;102643.41;;;17.58;44.98
29359;BME280;16347;53.232;6.556;2023-05-20T07:52:35;102635.13;;;17.58;45.35
29359;BME280;16347;53.232;6.556;2023-05-20T07:55:22;102637.97;;;17.66;45.90
29359;BME280;16347;53.232;6.556;2023-05-20T07:57:52;102644.16;;;17.68;45.55
29359;BME280;16347;53.232;6.556;2023-05-20T08:00:21;102646.56;;;17.71;45.31
29359;BME280;16347;53.232;6.556;2023-05-20T08:02:49;102642.41;;;17.67;45.06
29359;BME280;16347;53.232;6.556;2023-05-20T08:05:24;102645.06;;;17.76;45.34
29359;BME280;16347;53.232;6.556;2023-05-20T08:07:52;102643.16;;;17.77;45.09
29359;BME280;16347;53.232;6.556;2023-05-20T08:10:23;102634.66;;;17.88;45.57
29359;BME280;16347;53.232;6.556;2023-05-20T08:12:53;102633.66;;;17.97;45.68
29359;BME280;16347;53.232;6.556;2023-05-20T08:15:21;102634.59;;;18.06;45.25
29359;BME280;16347;53.232;6.556;2023-05-20T08:17:49;102633.00;;;18.03;44.54
29359;BME280;16347;53.232;6.556;2023-05-20T08:20:18;102623.94;;;18.11;44.71
29359;BME280;16347;53.232;6.556;2023-05-20T08:22:46;102625.66;;;18.12;44.58
29359;BME280;16347;53.232;6.556;2023-05-20T08:25:17;102623.78;;;18.20;44.66
29359;BME280;16347;53.232;6.556;2023-05-20T08:27:45;102622.09;;;18.19;44.21
29359;BME280;16347;53.232;6.556;2023-05-20T08:30:16;102620.34;;;18.18;44.25
29359;BME280;16347;53.232;6.556;2023-05-20T08:32:45;102613.84;;;18.27;44.07
29359;BME280;16347;53.232;6.556;2023-05-20T08:35:14;102617.19;;;18.39;43.77
29359;BME280;16347;53.232;6.556;2023-05-20T08:37:42;102612.88;;;18.36;43.97
29359;BME280;16347;53.232;6.556;2023-05-20T08:40:11;102606.84;;;18.33;44.66
29359;BME280;16347;53.232;6.556;2023-05-20T08:42:41;102605.31;;;18.47;44.28
29359;BME280;16347;53.232;6.556;2023-05-20T08:45:11;102600.34;;;18.50;43.98
29359;BME280;16347;53.232;6.556;2023-05-20T08:47:41;102597.63;;;18.58;43.75
29359;BME280;16347;53.232;6.556;2023-05-20T08:50:11;102600.75;;;18.63;44.32
29359;BME280;16347;53.232;6.556;2023-05-20T08:52:42;102600.06;;;18.69;43.56
29359;BME280;16347;53.232;6.556;2023-05-20T08:55:14;102588.38;;;18.75;43.78
29359;BME280;16347;53.232;6.556;2023-05-20T08:57:43;102587.00;;;18.79;43.55
29359;BME280;16347;53.232;6.556;2023-05-20T09:00:14;102590.28;;;18.83;43.49
29359;BME280;16347;53.232;6.556;2023-05-20T09:02:45;102590.28;;;18.83;43.33
29359;BME280;16347;53.232;6.556;2023-05-20T09:05:13;102592.66;;;18.62;42.98
29359;BME280;16347;53.232;6.556;2023-05-20T09:07:41;102592.16;;;18.82;43.50
29359;BME280;16347;53.232;6.556;2023-05-20T09:10:09;102585.63;;;18.83;43.07
29359;BME280;16347;53.232;6.556;2023-05-20T09:12:37;102585.97;;;18.88;43.76
29359;BME280;16347;53.232;6.556;2023-05-20T09:15:07;102586.13;;;18.87;42.95
29359;BME280;16347;53.232;6.556;2023-05-20T09:17:35;102593.91;;;19.00;43.94
29359;BME280;16347;53.232;6.556;2023-05-20T09:20:09;102588.22;;;19.09;43.95
29359;BME280;16347;53.232;6.556;2023-05-20T09:22:38;102579.44;;;19.14;43.66
29359;BME280;16347;53.232;6.556;2023-05-20T09:25:08;102572.38;;;19.19;43.43
29359;BME280;16347;53.232;6.556;2023-05-20T09:27:38;102569.94;;;19.24;43.58
29359;BME280;16347;53.232;6.556;2023-05-20T09:30:08;102573.91;;;19.22;42.47
29359;BME280;16347;53.232;6.556;2023-05-20T09:32:41;102567.16;;;19.24;42.80
29359;BME280;16347;53.232;6.556;2023-05-20T09:35:13;102576.00;;;19.20;42.88
29359;BME280;16347;53.232;6.556;2023-05-20T09:37:42;102566.66;;;19.21;42.49
29359;BME280;16347;53.232;6.556;2023-05-20T09:40:14;102564.97;;;19.20;43.21
29359;BME280;16347;53.232;6.556;2023-05-20T09:42:49;102556.16;;;19.32;43.25
29359;BME280;16347;53.232;6.556;2023-05-20T09:45:20;102561.81;;;19.31;43.21
29359;BME280;16347;53.232;6.556;2023-05-20T09:47:50;102550.28;;;19.35;43.61
29359;BME280;16347;53.232;6.556;2023-05-20T09:50:21;102549.25;;;19.44;42.00
29359;BME280;16347;53.232;6.556;2023-05-20T09:52:52;102542.19;;;19.42;42.23
29359;BME280;16347;53.232;6.556;2023-05-20T09:55:23;102550.28;;;19.52;42.63
29359;BME280;16347;53.232;6.556;2023-05-20T09:57:52;102547.16;;;19.55;43.55
29359;BME280;16347;53.232;6.556;2023-05-20T10:00:20;102545.09;;;19.49;42.36
29359;BME280;16347;53.232;6.556;2023-05-20T10:02:50;102546.13;;;19.48;42.69
29359;BME280;16347;53.232;6.556;2023-05-20T10:05:21;102538.88;;;19.55;43.04
29359;BME280;16347;53.232;6.556;2023-05-20T10:08:16;102531.59;;;19.70;42.53
29359;BME280;16347;53.232;6.556;2023-05-20T10:10:53;102527.09;;;19.77;43.47
29359;BME280;16347;53.232;6.556;2023-05-20T10:13:39;102530.56;;;19.71;44.69
29359;BME280;16347;53.232;6.556;2023-05-20T10:16:18;102528.00;;;19.61;43.37
29359;BME280;16347;53.232;6.556;2023-05-20T10:18:57;102521.44;;;19.62;44.26
29359;BME280;16347;53.232;6.556;2023-05-20T10:21:30;102514.69;;;19.65;44.54
29359;BME280;16347;53.232;6.556;2023-05-20T10:24:05;102516.06;;;19.69;44.03
29359;BME280;16347;53.232;6.556;2023-05-20T10:26:34;102511.44;;;19.61;43.81
29359;BME280;16347;53.232;6.556;2023-05-20T10:29:15;102511.28;;;19.55;44.21
29359;BME280;16347;53.232;6.556;2023-05-20T10:31:44;102505.75;;;19.55;44.06
29359;BME280;16347;53.232;6.556;2023-05-20T10:34:14;102499.38;;;19.54;43.82
29359;BME280;16347;53.232;6.556;2023-05-20T10:36:46;102503.22;;;19.45;43.84
29359;BME280;16347;53.232;6.556;2023-05-20T10:39:14;102497.69;;;19.45;44.01
29359;BME280;16347;53.232;6.556;2023-05-20T10:41:43;102494.44;;;19.41;43.55
29359;BME280;16347;53.232;6.556;2023-05-20T10:44:11;102500.28;;;19.47;44.79
29359;BME280;16347;53.232;6.556;2023-05-20T10:46:39;102505.63;;;19.48;45.33
29359;BME280;16347;53.232;6.556;2023-05-20T10:49:32;102497.31;;;19.56;45.69
29359;BME280;16347;53.232;6.556;2023-05-20T10:52:03;102496.81;;;19.61;45.76
29359;BME280;16347;53.232;6.556;2023-05-20T10:54:34;102490.38;;;19.68;45.96
29359;BME280;16347;53.232;6.556;2023-05-20T10:57:05;102490.88;;;19.72;45.20
29359;BME280;16347;53.232;6.556;2023-05-20T10:59:35;102491.75;;;19.72;45.16
29359;BME280;16347;53.232;6.556;2023-05-20T11:02:03;102484.50;;;19.71;45.06
29359;BME280;16347;53.232;6.556;2023-05-20T11:04:31;102488.13;;;19.72;45.63
29359;BME280;16347;53.232;6.556;2023-05-20T11:06:59;102485.72;;;19.69;45.36
29359;BME280;16347;53.232;6.556;2023-05-20T11:09:29;102483.31;;;19.66;45.92
29359;BME280;16347;53.232;6.556;2023-05-20T11:11:57;102473.50;;;19.63;46.10
29359;BME280;16347;53.232;6.556;2023-05-20T11:14:27;102478.81;;;19.73;46.36
29359;BME280;16347;53.232;6.556;2023-05-20T11:16:56;102472.03;;;19.83;46.89
29359;BME280;16347;53.232;6.556;2023-05-20T11:19:24;102470.78;;;19.94;46.09
29359;BME280;16347;53.232;6.556;2023-05-20T11:21:53;102467.19;;;19.85;45.68
29359;BME280;16347;53.232;6.556;2023-05-20T11:24:23;102456.41;;;19.98;46.49
29359;BME280;16347;53.232;6.556;2023-05-20T11:26:55;102463.16;;;19.96;45.62
29359;BME280;16347;53.232;6.556;2023-05-20T11:29:25;102455.78;;;19.88;46.85
29359;BME280;16347;53.232;6.556;2023-05-20T11:31:54;102451.97;;;19.89;47.50
29359;BME280;16347;53.232;6.556;2023-05-20T11:34:23;102452.56;;;19.77;48.16
29359;BME280;16347;53.232;6.556;2023-05-20T11:36:55;102458.72;;;19.87;48.07
29359;BME280;16347;53.232;6.556;2023-05-20T11:39:24;102454.00;;;19.95;47.97
29359;BME280;16347;53.232;6.556;2023-05-20T11:41:54;102445.84;;;20.02;47.17
29359;BME280;16347;53.232;6.556;2023-05-20T11:44:23;102440.16;;;20.04;47.43
29359;BME280;16347;53.232;6.556;2023-05-20T11:46:58;102440.47;;;20.09;46.53
29359;BME280;16347;53.232;6.556;2023-05-20T11:49:26;102437.53;;;20.10;46.71
29359;BME280;16347;53.232;6.556;2023-05-20T11:51:55;102434.91;;;20.17;46.38
29359;BME280;16347;53.232;6.556;2023-05-20T11:54:23;102422.75;;;20.26;46.40
29359;BME280;16347;53.232;6.556;2023-05-20T11:56:54;102415.97;;;20.36;45.94
29359;BME280;16347;53.232;6.556;2023-05-20T11:59:23;102423.94;;;20.31;46.21
29359;BME280;16347;53.232;6.556;2023-05-20T12:01:51;102414.47;;;20.48;45.37
29359;BME280;16347;53.232;6.556;2023-05-20T12:04:19;102418.81;;;20.66;45.83
29359;BME280;16347;53.232;6.556;2023-05-20T12:06:47;102421.13;;;20.77;44.78
29359;BME280;16347;53.232;6.556;2023-05-20T12:09:15;102416.16;;;20.72;43.76
29359;BME280;16347;53.232;6.556;2023-05-20T12:11:43;102412.19;;;20.75;45.08
29359;BME280;16347;53.232;6.556;2023-05-20T12:14:12;102406.66;;;20.75;44.56
29359;BME280;16347;53.232;6.556;2023-05-20T12:16:40;102415.28;;;20.72;45.65
29359;BME280;16347;53.232;6.556;2023-05-20T12:19:08;102404.94;;;20.74;44.24
29359;BME280;16347;53.232;6.556;2023-05-20T12:21:36;102416.25;;;20.64;44.09
29359;BME280;16347;53.232;6.556;2023-05-20T12:24:04;102400.03;;;20.61;45.06
29359;BME280;16347;53.232;6.556;2023-05-20T12:26:34;102401.38;;;20.65;45.60
29359;BME280;16347;53.232;6.556;2023-05-20T12:29:02;102402.09;;;20.44;45.29
29359;BME280;16347;53.232;6.556;2023-05-20T12:31:31;102406.94;;;20.42;45.44
29359;BME280;16347;53.232;6.556;2023-05-20T12:34:01;102398.75;;;20.26;44.77
29359;BME280;16347;53.232;6.556;2023-05-20T12:36:29;102400.13;;;20.30;45.61
29359;BME280;16347;53.232;6.556;2023-05-20T12:38:57;102393.84;;;20.36;45.36
29359;BME280;16347;53.232;6.556;2023-05-20T12:41:26;102389.81;;;20.47;45.42
29359;BME280;16347;53.232;6.556;2023-05-20T12:43:53;102396.78;;;20.58;45.09
29359;BME280;16347;53.232;6.556;2023-05-20T12:46:22;102400.63;;;20.71;45.15
29359;BME280;16347;53.232;6.556;2023-05-20T12:48:51;102385.16;;;20.62;44.18
29359;BME280;16347;53.232;6.556;2023-05-20T12:51:19;102387.53;;;20.65;44.45
29359;BME280;16347;53.232;6.556;2023-05-20T12:53:47;102373.75;;;20.80;44.94
29359;BME280;16347;53.232;6.556;2023-05-20T12:56:15;102378.84;;;20.91;45.01
29359;BME280;16347;53.232;6.556;2023-05-20T12:58:43;102373.19;;;20.84;44.27
29359;BME280;16347;53.232;6.556;2023-05-20T13:01:11;102380.03;;;21.11;44.65